Skip Navigation Links Skip Navigation Links

Current Weather

Callaway Gardens-Harris County, Pine Mountain, Ga.

For information only: do not use for flight planning or navigation.
Latest weather
Observation time Tuesday, January 26, 2021 8:15 PM EST
Local time Tuesday, January 26, 2021 8:47 PM EST
Flight conditions Visual Meteorological Conditions
Winds
Wind speed calm
Visibility 10 mi.
Sky condition
Ceiling 8,000 ft. broken clouds
Cloud layer broken clouds 8,000 ft.
Cloud layer overcast 11,000 ft.
Temperature 59°F
Dewpoint 54°F
Altimeter 29.97 in.Hg
Derived measurements
Relative humidity 84%
Density altitude 1020 ft.
Remarks
Fully automated report.
Automated weather observing station with precipitation discriminator.
METAR KPIM 270115Z AUTO 00000KT 10SM BKN080 OVC110 15/12 A2997 RMK AO2 T01480121

Settings

Location code

InnerDrive.Weather 4.0.6770.0 Release CLR 4.0.30319.42000
Copyright ©2018 Inner Drive Technology. All rights reserved. Portions Copyright ©1986-2018 David Braverman.

Find weather

Site navigation


Skip Navigation Links

Place info

Page info

PayPal - The safer, easier way to pay online!

Return home.

Copyright ©2021 Inner Drive Technology. Purveyors of fine, hand-crafted computer software. Page printed 2021-01-27T01:47:11 UTC.